Time;durP1;ratioP1;P1;durP2;ratioP2;P2;SDS_P1;SDS_P2;PMS_P1;PMS_P2;Temp;Humidity;BMP_temperature;BMP_pressure;BME280_temperature;BME280_humidity;BME280_pressure;Samples;Min_cycle;Max_cycle;Signal;HPM_P1;HPM_P2
2022/11/02 00:00:24;;;;;;;46.20;26.80;;;;;;;10.84;91.55;100270.94;99712;1289;106335;-84
2022/11/02 00:03:11;;;;;;;48.20;27.20;;;;;;;10.86;91.38;100271.55;99613;1284;138700;-83
2022/11/02 00:05:38;;;;;;;44.60;25.90;;;;;;;10.88;91.51;100271.48;99745;1282;107937;-83
2022/11/02 00:08:05;;;;;;;49.00;26.90;;;;;;;10.92;91.45;100269.11;99797;1290;139096;-84
2022/11/02 00:10:32;;;;;;;41.80;25.90;;;;;;;10.94;91.27;100267.66;99836;1292;112308;-84
2022/11/02 00:12:59;;;;;;;43.60;25.90;;;;;;;10.96;91.33;100270.55;99759;1289;110098;-84
2022/11/02 00:15:30;;;;;;;47.40;26.70;;;;;;;11.00;91.44;100269.02;99771;1282;139322;-84
2022/11/02 00:18:01;;;;;;;47.80;25.60;;;;;;;11.04;91.35;100270.45;99840;1282;107016;-83
2022/11/02 00:20:30;;;;;;;45.80;26.00;;;;;;;11.06;91.34;100271.58;99628;1284;139596;-83
2022/11/02 00:23:01;;;;;;;45.10;26.60;;;;;;;11.10;91.16;100274.92;99837;1289;111706;-82
2022/11/02 00:25:29;;;;;;;46.90;26.90;;;;;;;11.10;90.98;100274.23;99844;1284;106992;-82
2022/11/02 00:27:57;;;;;;;49.60;28.10;;;;;;;11.09;90.71;100273.08;99689;1288;138901;-82
2022/11/02 00:30:24;;;;;;;48.70;27.40;;;;;;;11.08;90.89;100272.94;99634;1281;109054;-82
2022/11/02 00:32:51;;;;;;;53.20;27.10;;;;;;;11.10;91.12;100272.15;99713;1284;140106;-83
2022/11/02 00:35:19;;;;;;;49.40;28.60;;;;;;;11.10;90.80;100273.00;99730;1291;111143;-82
2022/11/02 00:37:46;;;;;;;50.80;28.50;;;;;;;11.10;90.90;100273.19;99771;1295;107268;-82
2022/11/02 00:40:13;;;;;;;48.50;27.20;;;;;;;11.10;90.83;100274.39;99719;1284;138521;-83
2022/11/02 00:42:40;;;;;;;50.60;27.30;;;;;;;11.11;90.85;100276.10;99803;1278;105992;-83
2022/11/02 00:45:09;;;;;;;47.70;26.10;;;;;;;11.12;90.79;100276.93;99778;1290;139475;-81
2022/11/02 00:47:36;;;;;;;48.10;28.40;;;;;;;11.14;90.79;100281.08;99840;1284;111584;-83
2022/11/02 00:50:04;;;;;;;46.00;27.60;;;;;;;11.14;90.71;100277.06;99738;1291;138846;-83
2022/11/02 00:52:31;;;;;;;49.00;27.30;;;;;;;11.14;90.69;100272.89;99706;1284;97693;-83
2022/11/02 00:54:58;;;;;;;47.00;28.50;;;;;;;11.14;90.71;100270.64;99657;1291;107944;-83
2022/11/02 00:57:26;;;;;;;50.20;28.90;;;;;;;11.15;90.74;100270.95;99621;1277;138925;-84
2022/11/02 00:59:53;;;;;;;49.90;29.20;;;;;;;11.15;90.61;100266.27;99767;1292;110921;-83
2022/11/02 01:02:20;;;;;;;51.20;29.40;;;;;;;11.16;90.76;100267.42;99638;1284;139034;-83
2022/11/02 01:04:47;;;;;;;49.70;28.80;;;;;;;11.17;90.78;100269.31;99764;1289;98404;-83
2022/11/02 01:07:14;;;;;;;48.50;28.80;;;;;;;11.18;90.73;100264.75;99787;1290;106709;-83
2022/11/02 01:09:41;;;;;;;48.30;29.20;;;;;;;11.20;90.84;100264.66;99701;1285;138580;-83
2022/11/02 01:12:08;;;;;;;49.20;28.40;;;;;;;11.22;90.95;100260.45;99798;1289;110785;-83
2022/11/02 01:14:36;;;;;;;49.50;29.10;;;;;;;11.22;90.80;100258.50;99769;1284;140210;-83
2022/11/02 01:17:03;;;;;;;48.50;27.70;;;;;;;11.24;90.85;100258.27;99804;1288;96423;-83
2022/11/02 01:19:30;;;;;;;48.40;27.70;;;;;;;11.24;90.52;100260.34;99786;1292;107710;-83
2022/11/02 01:21:57;;;;;;;46.00;27.10;;;;;;;11.24;90.56;100262.09;99791;1284;138644;-82
2022/11/02 01:24:24;;;;;;;42.80;26.50;;;;;;;11.25;90.58;100258.76;99815;1291;110307;-83
2022/11/02 01:26:52;;;;;;;47.10;26.80;;;;;;;11.27;90.54;100259.03;99705;1284;139630;-83
2022/11/02 01:29:19;;;;;;;47.30;27.70;;;;;;;11.31;90.62;100258.38;99803;1284;98383;-83
2022/11/02 01:31:47;;;;;;;47.80;28.50;;;;;;;11.35;90.50;100260.68;99855;1284;108491;-83
2022/11/02 01:34:16;;;;;;;47.50;28.50;;;;;;;11.35;90.28;100261.37;99762;1292;99199;-83
2022/11/02 01:36:46;;;;;;;51.00;30.30;;;;;;;11.37;90.36;100261.80;99855;1284;110717;-82
2022/11/02 01:39:16;;;;;;;50.50;30.90;;;;;;;11.36;90.34;100264.29;99770;1284;138587;-81
2022/11/02 01:41:44;;;;;;;52.80;30.60;;;;;;;11.34;90.21;100260.89;99839;1288;97017;-83
2022/11/02 01:44:29;;;;;;;56.70;30.90;;;;;;;11.33;90.25;100259.70;99695;1284;138875;-83
2022/11/02 01:46:59;;;;;;;52.90;28.80;;;;;;;11.32;90.12;100257.47;99701;1290;97839;-83
2022/11/02 01:49:27;;;;;;;52.70;29.40;;;;;;;11.32;90.18;100254.88;99863;1289;110747;-83
2022/11/02 01:52:02;;;;;;;54.10;29.60;;;;;;;11.33;90.06;100255.72;99692;1284;138558;-83
2022/11/02 01:54:36;;;;;;;52.40;27.80;;;;;;;11.32;89.88;100260.27;99715;1292;98418;-83
2022/11/02 01:57:06;;;;;;;61.50;33.30;;;;;;;11.33;90.04;100261.30;99494;1284;137911;-84
2022/11/02 01:59:39;;;;;;;61.90;31.60;;;;;;;11.31;89.80;100262.55;99717;1284;97913;-83
2022/11/02 02:02:11;;;;;;;63.80;32.50;;;;;;;11.28;89.80;100260.04;99568;1292;139251;-83
2022/11/02 02:04:39;;;;;;;64.40;31.30;;;;;;;11.26;89.98;100258.20;99694;1295;107460;-84
2022/11/02 02:07:05;;;;;;;62.10;31.50;;;;;;;11.24;90.04;100260.88;99826;1284;97842;-83
2022/11/02 02:09:34;;;;;;;68.00;32.90;;;;;;;11.24;90.31;100263.33;99620;1284;138817;-83
2022/11/02 02:12:01;;;;;;;59.30;32.60;;;;;;;11.23;90.21;100260.41;99742;1290;97871;-83
2022/11/02 02:14:28;;;;;;;72.70;34.50;;;;;;;11.21;90.32;100259.95;99682;1288;139537;-81
2022/11/02 02:17:07;;;;;;;73.10;36.90;;;;;;;11.18;90.35;100264.73;99758;1290;106506;-81
2022/11/02 02:19:48;;;;;;;97.90;38.10;;;;;;;11.18;90.65;100262.50;99810;1288;97825;-81
2022/11/02 02:22:53;;;;;;;85.50;37.80;;;;;;;11.16;90.63;100257.34;99862;1290;107146;-84
2022/11/02 02:25:46;;;;;;;85.10;37.70;;;;;;;11.14;90.83;100259.33;99421;1294;97707;-81
2022/11/02 02:28:19;;;;;;;78.30;37.40;;;;;;;11.12;90.90;100264.77;99334;1289;138496;-81
2022/11/02 02:30:51;;;;;;;85.20;38.60;;;;;;;11.11;91.19;100259.40;99369;1294;107246;-81
2022/11/02 02:33:27;;;;;;;87.00;41.10;;;;;;;11.09;91.14;100260.16;99282;1294;139388;-81
2022/11/02 02:35:59;;;;;;;88.40;41.10;;;;;;;11.09;91.43;100260.33;99387;1293;108165;-81
2022/11/02 02:38:32;;;;;;;103.00;40.40;;;;;;;11.08;91.37;100265.61;99298;1294;138833;-81
2022/11/02 02:41:09;;;;;;;103.40;41.10;;;;;;;11.05;91.43;100266.06;99430;1294;110354;-81
2022/11/02 02:43:41;;;;;;;102.50;42.40;;;;;;;11.03;91.66;100268.73;99371;1286;107761;-81
2022/11/02 02:46:13;;;;;;;155.30;43.90;;;;;;;11.02;91.82;100271.05;99338;1293;138882;-81
2022/11/02 02:48:43;;;;;;;104.90;42.50;;;;;;;11.02;91.98;100268.41;99492;1296;106805;-82
2022/11/02 02:51:15;;;;;;;107.50;42.70;;;;;;;11.02;92.15;100270.53;99410;1296;139936;-81
2022/11/02 02:53:47;;;;;;;132.60;44.20;;;;;;;11.02;92.32;100272.45;99472;1294;110234;-82
2022/11/02 02:56:18;;;;;;;101.50;44.00;;;;;;;11.02;92.54;100273.31;99356;1287;140052;-82
2022/11/02 02:58:51;;;;;;;124.90;45.40;;;;;;;11.01;92.55;100273.52;99505;1287;96456;-82
2022/11/02 03:01:19;;;;;;;114.40;45.60;;;;;;;11.02;92.73;100271.40;99409;1294;108186;-82
2022/11/02 03:03:47;;;;;;;109.60;46.50;;;;;;;11.03;92.98;100271.37;99619;1290;140137;-83
2022/11/02 03:06:19;;;;;;;118.00;46.30;;;;;;;11.03;93.01;100269.09;99785;1284;111196;-84
2022/11/02 03:09:03;;;;;;;113.50;46.30;;;;;;;11.05;93.12;100273.02;99588;1284;140865;-81
2022/11/02 03:11:32;;;;;;;120.30;47.20;;;;;;;11.05;93.21;100270.06;99713;1284;97832;-82
2022/11/02 03:14:21;;;;;;;133.40;48.40;;;;;;;11.06;93.32;100277.52;99583;1290;139687;-82
2022/11/02 03:17:03;;;;;;;100.60;46.50;;;;;;;11.07;93.42;100276.79;99653;1290;97856;-81
2022/11/02 03:19:42;;;;;;;111.80;46.70;;;;;;;11.07;93.54;100267.89;99855;1290;111836;-82
2022/11/02 03:22:21;;;;;;;119.50;48.00;;;;;;;11.11;93.62;100266.36;99562;1291;140165;-81
2022/11/02 03:24:59;;;;;;;115.20;47.50;;;;;;;11.12;93.76;100273.64;99718;1291;98363;-81
2022/11/02 03:27:35;;;;;;;109.30;48.30;;;;;;;11.14;93.91;100270.09;99737;1289;139810;-81
2022/11/02 03:30:08;;;;;;;109.00;47.90;;;;;;;11.16;94.06;100270.58;99885;1290;97833;-82
2022/11/02 03:32:40;;;;;;;107.90;46.40;;;;;;;11.16;94.10;100274.21;99672;1284;139334;-82
2022/11/02 03:35:15;;;;;;;108.60;47.40;;;;;;;11.17;94.10;100274.85;99821;1290;108312;-83
2022/11/02 03:37:46;;;;;;;110.60;47.30;;;;;;;11.19;94.39;100272.19;99833;1286;97816;-82
2022/11/02 03:40:19;;;;;;;108.00;48.00;;;;;;;11.22;94.43;100277.50;99626;1288;139240;-82
2022/11/02 03:42:48;;;;;;;105.60;47.60;;;;;;;11.25;94.48;100277.73;99836;1290;99888;-81
2022/11/02 03:45:18;;;;;;;100.90;44.70;;;;;;;11.30;94.66;100283.64;99738;1284;138549;-82
2022/11/02 03:47:52;;;;;;;104.20;45.70;;;;;;;11.35;94.73;100284.36;99769;1284;107614;-82
2022/11/02 03:50:23;;;;;;;108.00;47.50;;;;;;;11.39;94.65;100288.20;99670;1284;140345;-83
2022/11/02 03:52:54;;;;;;;104.40;46.10;;;;;;;11.43;94.59;100291.20;99602;1283;109483;-83
2022/11/02 03:55:26;;;;;;;102.30;47.20;;;;;;;11.49;94.73;100285.25;99853;1289;97908;-83
2022/11/02 03:57:54;;;;;;;104.20;46.50;;;;;;;11.57;94.66;100288.27;99658;1290;139151;-81
2022/11/02 04:00:28;;;;;;;105.60;47.50;;;;;;;11.63;94.59;100291.20;99838;1289;107481;-82
2022/11/02 04:03:02;;;;;;;98.80;47.50;;;;;;;11.69;94.58;100294.47;99736;1283;138768;-82
2022/11/02 04:05:33;;;;;;;110.20;47.60;;;;;;;11.75;94.44;100295.62;99735;1291;108025;-82
2022/11/02 04:08:23;;;;;;;121.70;49.40;;;;;;;11.80;94.23;100295.84;99676;1284;138529;-82
2022/11/02 04:16:27;;;;;;;116.50;50.80;;;;;;;11.82;94.03;100299.25;99407;1288;97929;-83
2022/11/02 04:21:40;;;;;;;114.70;48.10;;;;;;;11.85;94.21;100300.54;99364;1293;139238;-82
2022/11/02 04:26:52;;;;;;;112.00;48.10;;;;;;;11.88;94.23;100298.85;99403;1294;139251;-82
2022/11/02 04:29:19;;;;;;;123.10;50.50;;;;;;;11.90;94.27;100301.21;99518;1287;97812;-81
2022/11/02 04:31:46;;;;;;;112.80;49.50;;;;;;;11.94;94.30;100298.98;99489;1302;107580;-82
2022/11/02 04:34:14;;;;;;;131.70;50.90;;;;;;;11.98;94.22;100299.35;99330;1293;138302;-82
2022/11/02 04:36:40;;;;;;;117.40;50.10;;;;;;;12.01;94.24;100299.23;99432;1298;111576;-82
2022/11/02 04:39:08;;;;;;;131.20;51.70;;;;;;;12.05;94.22;100305.57;99292;1291;138256;-81
2022/11/02 04:41:41;;;;;;;124.60;53.40;;;;;;;12.04;94.10;100304.54;99437;1293;96830;-82
2022/11/02 04:44:14;;;;;;;117.60;50.60;;;;;;;12.05;94.28;100303.81;99383;1288;140052;-82
2022/11/02 04:46:45;;;;;;;113.40;48.20;;;;;;;12.08;94.37;100307.70;99354;1296;97659;-83
2022/11/02 04:49:13;;;;;;;121.70;52.70;;;;;;;12.08;94.16;100304.91;99524;1295;111111;-84
2022/11/02 04:51:40;;;;;;;114.20;50.40;;;;;;;12.07;94.18;100302.00;99438;1284;139556;-84
2022/11/02 04:54:15;;;;;;;109.10;50.20;;;;;;;12.07;94.29;100299.55;99716;1291;97930;-84
2022/11/02 04:56:42;;;;;;;105.50;49.30;;;;;;;12.11;94.59;100301.83;99616;1291;140399;-84
2022/11/02 04:59:10;;;;;;;107.70;48.60;;;;;;;12.15;94.50;100302.38;99790;1298;97899;-83
2022/11/02 05:01:37;;;;;;;113.00;47.90;;;;;;;12.20;94.52;100304.13;99733;1288;111551;-83
2022/11/02 05:04:05;;;;;;;119.40;48.60;;;;;;;12.21;94.31;100303.38;99563;1284;138965;-83
2022/11/02 05:06:34;;;;;;;111.20;50.10;;;;;;;12.21;94.17;100307.73;99858;1290;96514;-83
2022/11/02 05:09:04;;;;;;;139.30;51.70;;;;;;;12.20;94.09;100307.92;99704;1290;138079;-82
2022/11/02 05:11:32;;;;;;;163.00;51.90;;;;;;;12.21;94.12;100309.13;99805;1282;97893;-82
2022/11/02 05:13:59;;;;;;;142.50;48.90;;;;;;;12.19;94.06;100311.48;99762;1289;110834;-83
2022/11/02 05:16:27;;;;;;;165.70;50.40;;;;;;;12.17;94.08;100314.17;99738;1290;106837;-84
2022/11/02 05:18:54;;;;;;;114.30;51.80;;;;;;;12.14;94.16;100319.16;99623;1284;98430;-83
2022/11/02 05:21:22;;;;;;;146.60;51.10;;;;;;;12.09;94.26;100320.38;99740;1291;138624;-83
2022/11/02 05:23:49;;;;;;;128.00;50.40;;;;;;;12.06;94.38;100320.32;99718;1284;96340;-83
2022/11/02 05:26:16;;;;;;;133.00;51.20;;;;;;;12.02;94.51;100319.92;99653;1287;140100;-83
2022/11/02 05:28:45;;;;;;;150.40;50.40;;;;;;;11.99;94.66;100326.84;99729;1292;107627;-83
2022/11/02 05:31:12;;;;;;;156.60;52.00;;;;;;;11.97;94.85;100325.52;99815;1284;97729;-83
2022/11/02 05:33:39;;;;;;;130.70;50.00;;;;;;;11.95;95.09;100325.95;99592;1290;138885;-83
2022/11/02 05:36:11;;;;;;;133.50;53.90;;;;;;;11.93;95.14;100324.27;99767;1288;98017;-83
2022/11/02 05:38:39;;;;;;;135.70;52.30;;;;;;;11.93;95.39;100330.05;99595;1284;142026;-82
2022/11/02 05:41:07;;;;;;;129.10;52.40;;;;;;;11.94;95.68;100330.33;99642;1292;107604;-81
2022/11/02 05:43:35;;;;;;;113.80;50.50;;;;;;;11.95;95.77;100333.45;99790;1290;97870;-82
2022/11/02 05:46:04;;;;;;;119.40;52.90;;;;;;;11.94;95.79;100333.98;99605;1284;139671;-84
2022/11/02 05:48:32;;;;;;;132.70;55.30;;;;;;;11.94;95.76;100340.29;99793;1290;98447;-83
2022/11/02 05:51:02;;;;;;;112.90;50.70;;;;;;;11.93;95.89;100342.23;99651;1290;139118;-83
2022/11/02 05:53:31;;;;;;;110.30;52.20;;;;;;;11.92;96.11;100342.79;99717;1291;107855;-85
2022/11/02 05:56:01;;;;;;;104.00;51.30;;;;;;;11.93;96.17;100347.96;99832;1292;98769;-85
2022/11/02 05:58:28;;;;;;;110.10;50.70;;;;;;;11.94;96.29;100354.75;99798;1284;107456;-84
2022/11/02 06:00:58;;;;;;;119.80;52.00;;;;;;;11.96;96.39;100357.79;99650;1291;97734;-81
2022/11/02 06:03:25;;;;;;;115.00;49.80;;;;;;;11.98;96.61;100352.15;99692;1284;138544;-83
2022/11/02 06:05:59;;;;;;;100.20;47.80;;;;;;;12.00;96.66;100357.13;99671;1291;107706;-78
2022/11/02 06:08:27;;;;;;;95.90;46.80;;;;;;;12.02;96.69;100354.95;99706;1291;140608;-80
2022/11/02 06:10:54;;;;;;;102.50;47.70;;;;;;;12.06;96.75;100354.32;99789;1291;107634;-80
2022/11/02 06:13:21;;;;;;;95.50;45.80;;;;;;;12.09;96.75;100356.63;99856;1290;97849;-84
2022/11/02 06:15:48;;;;;;;96.70;45.00;;;;;;;12.11;96.85;100361.08;99654;1290;138394;-81
2022/11/02 06:18:14;;;;;;;91.90;44.40;;;;;;;12.14;96.88;100366.55;99777;1290;105413;-85
2022/11/02 06:20:41;;;;;;;88.40;41.60;;;;;;;12.18;96.92;100367.83;99619;1291;141007;-82
2022/11/02 06:23:08;;;;;;;85.60;43.50;;;;;;;12.21;96.89;100369.43;99799;1306;107981;-85
2022/11/02 06:25:35;;;;;;;92.30;40.60;;;;;;;12.26;96.83;100369.27;99838;1291;96160;-83
2022/11/02 06:28:02;;;;;;;79.50;41.70;;;;;;;12.30;96.61;100373.81;99675;1290;140072;-85
2022/11/02 06:30:29;;;;;;;80.70;41.20;;;;;;;12.33;96.45;100380.13;99749;1291;107564;-83
2022/11/02 06:32:56;;;;;;;81.10;40.10;;;;;;;12.36;96.31;100384.72;99675;1284;138849;-79
2022/11/02 06:35:27;;;;;;;78.70;37.40;;;;;;;12.40;96.40;100384.07;99814;1291;107510;-83
2022/11/02 06:37:54;;;;;;;75.80;38.40;;;;;;;12.45;96.39;100386.84;99963;1297;98079;-82
2022/11/02 06:40:21;;;;;;;71.50;36.30;;;;;;;12.53;96.60;100387.08;99888;1288;138929;-82
2022/11/02 06:42:57;;;;;;;66.60;34.10;;;;;;;12.60;96.45;100385.77;99938;1290;107509;-82
2022/11/02 06:45:45;;;;;;;64.70;34.90;;;;;;;12.65;95.81;100392.20;99812;1291;139070;-77
2022/11/02 06:48:12;;;;;;;68.70;34.90;;;;;;;12.68;95.75;100391.89;101427;1297;108981;-76
2022/11/02 06:50:39;;;;;;;64.20;35.20;;;;;;;12.70;95.35;100392.84;101308;1291;142516;-80
2022/11/02 06:53:06;;;;;;;68.20;35.60;;;;;;;12.69;95.02;100392.20;101444;1299;112882;-81
2022/11/02 06:55:33;;;;;;;68.50;34.70;;;;;;;12.70;95.12;100389.90;101045;1292;106578;-81
2022/11/02 06:58:00;;;;;;;59.80;33.40;;;;;;;12.74;95.06;100392.02;99758;1288;140929;-80
2022/11/02 07:00:28;;;;;;;57.50;30.00;;;;;;;12.77;94.84;100391.59;99770;1282;107453;-81
2022/11/02 07:03:02;;;;;;;57.90;30.20;;;;;;;12.79;94.41;100393.40;99463;1299;139938;-81
2022/11/02 07:05:30;;;;;;;52.60;28.70;;;;;;;12.81;94.23;100395.25;99857;1288;110670;-83
2022/11/02 07:07:58;;;;;;;53.30;28.40;;;;;;;12.83;94.22;100393.25;99845;1298;107446;-81
2022/11/02 07:10:25;;;;;;;49.10;27.30;;;;;;;12.85;94.10;100396.83;99767;1284;97826;-78
2022/11/02 07:12:54;;;;;;;51.70;28.50;;;;;;;12.89;93.96;100396.13;99882;1289;109078;-81
2022/11/02 07:15:23;;;;;;;48.50;26.20;;;;;;;12.93;93.96;100393.36;99716;1289;138645;-80
2022/11/02 07:17:50;;;;;;;48.50;26.30;;;;;;;12.96;93.50;100396.05;99882;1284;111624;-82
2022/11/02 07:20:18;;;;;;;50.20;28.00;;;;;;;12.98;93.17;100396.31;99831;1295;138430;-82
2022/11/02 07:22:53;;;;;;;55.50;28.40;;;;;;;13.02;93.22;100402.77;99808;1290;98464;-79
2022/11/02 07:25:20;;;;;;;51.10;28.00;;;;;;;13.06;93.14;100401.56;99914;1297;107329;-82
2022/11/02 07:27:47;;;;;;;48.70;27.00;;;;;;;13.09;93.06;100399.52;99676;1291;138702;-80
2022/11/02 07:30:15;;;;;;;53.00;27.70;;;;;;;13.18;93.42;100400.59;99756;1285;111260;-81
2022/11/02 07:32:43;;;;;;;45.60;26.00;;;;;;;13.32;92.95;100401.08;99656;1291;141179;-78
2022/11/02 07:35:12;;;;;;;47.60;25.50;;;;;;;13.48;92.71;100394.82;99881;1281;98450;-78
2022/11/02 07:37:39;;;;;;;48.00;26.20;;;;;;;13.70;92.30;100393.18;99962;1291;107598;-80
2022/11/02 07:40:09;;;;;;;47.70;27.10;;;;;;;14.10;92.16;100394.60;99673;1290;140761;-79
2022/11/02 07:42:36;;;;;;;47.60;27.60;;;;;;;14.56;91.25;100393.61;99873;1282;111603;-81
2022/11/02 07:45:05;;;;;;;47.00;27.20;;;;;;;15.08;90.50;100393.38;99721;1289;141230;-83
2022/11/02 07:47:32;;;;;;;47.20;26.90;;;;;;;15.60;89.70;100391.52;99740;1286;96088;-83
2022/11/02 07:50:00;;;;;;;44.60;27.40;;;;;;;16.02;87.16;100392.52;99778;1298;107528;-81
2022/11/02 07:52:28;;;;;;;50.40;28.40;;;;;;;16.41;85.91;100390.31;99731;1289;97893;-82
2022/11/02 07:54:55;;;;;;;46.50;28.00;;;;;;;16.72;84.50;100387.91;99906;1291;110673;-81
2022/11/02 07:57:22;;;;;;;49.60;27.60;;;;;;;17.00;83.20;100386.35;99718;1287;137931;-80
2022/11/02 07:59:49;;;;;;;48.00;28.60;;;;;;;17.21;82.00;100390.95;99770;1287;96439;-80
2022/11/02 08:02:16;;;;;;;50.10;29.00;;;;;;;17.41;81.67;100392.09;99599;1291;138041;-79
2022/11/02 08:04:43;;;;;;;51.70;28.50;;;;;;;17.63;80.77;100387.30;99814;1292;99328;-78
2022/11/02 08:07:12;;;;;;;45.70;28.40;;;;;;;17.76;79.86;100391.98;99727;1284;111103;-78
2022/11/02 08:09:39;;;;;;;45.20;27.70;;;;;;;17.98;78.92;100391.52;99624;1291;138125;-78
2022/11/02 08:12:10;;;;;;;46.50;26.60;;;;;;;17.97;77.65;100395.11;99870;1287;97847;-78
2022/11/02 08:14:37;;;;;;;48.40;27.40;;;;;;;17.82;76.80;100392.83;99754;1290;138060;-78
2022/11/02 08:17:04;;;;;;;43.20;28.40;;;;;;;17.63;76.99;100387.08;99871;1287;97943;-77
2022/11/02 08:19:32;;;;;;;45.70;27.70;;;;;;;17.41;77.06;100387.48;99860;1288;111100;-79
2022/11/02 08:21:59;;;;;;;42.10;25.40;;;;;;;17.16;77.13;100392.13;99733;1291;138486;-77
2022/11/02 08:24:26;;;;;;;45.70;25.70;;;;;;;16.90;77.05;100389.05;99854;1291;98344;-77
2022/11/02 08:26:52;;;;;;;41.20;25.30;;;;;;;16.71;77.44;100387.98;99742;1290;139467;-79
2022/11/02 08:29:20;;;;;;;46.50;25.40;;;;;;;16.54;77.34;100390.66;99784;1290;99676;-79
2022/11/02 08:31:49;;;;;;;39.50;25.50;;;;;;;16.33;77.50;100393.34;99826;1290;110275;-78
2022/11/02 08:34:16;;;;;;;37.90;24.00;;;;;;;16.13;77.47;100385.30;99735;1292;140343;-79
2022/11/02 08:36:43;;;;;;;43.30;26.60;;;;;;;15.96;77.93;100386.02;99973;1283;98401;-79
2022/11/02 08:39:10;;;;;;;42.60;25.40;;;;;;;15.81;78.25;100387.84;99549;1290;138620;-82
2022/11/02 08:41:44;;;;;;;40.70;25.20;;;;;;;15.70;78.28;100384.91;99980;1288;97859;-78
2022/11/02 08:44:11;;;;;;;39.10;26.30;;;;;;;15.58;78.31;100384.48;99881;1291;140253;-80
2022/11/02 08:46:38;;;;;;;41.90;26.40;;;;;;;15.45;78.36;100385.06;99878;1292;107820;-78
2022/11/02 08:49:05;;;;;;;42.60;26.90;;;;;;;15.31;78.41;100390.19;99883;1291;98024;-78
2022/11/02 08:51:32;;;;;;;43.10;26.90;;;;;;;15.16;78.52;100390.02;99781;1291;139546;-80
2022/11/02 08:53:59;;;;;;;41.80;26.20;;;;;;;15.03;78.74;100390.80;99735;1285;97801;-82
2022/11/02 08:56:26;;;;;;;45.40;27.60;;;;;;;15.12;79.36;100390.06;99726;1288;140238;-73
2022/11/02 08:58:53;;;;;;;39.00;26.00;;;;;;;15.26;78.96;100387.45;99803;1288;107628;-77
2022/11/02 09:01:22;;;;;;;38.30;26.10;;;;;;;15.31;78.71;100394.73;99874;1281;98442;-78
2022/11/02 09:03:49;;;;;;;40.00;27.20;;;;;;;15.32;78.63;100394.69;99675;1292;140100;-79
2022/11/02 09:06:16;;;;;;;41.50;26.70;;;;;;;15.27;78.43;100398.80;99821;1287;97700;-77
2022/11/02 09:08:43;;;;;;;41.80;28.10;;;;;;;15.17;78.74;100397.00;99696;1284;138569;-80
2022/11/02 09:11:11;;;;;;;37.30;24.90;;;;;;;15.08;78.71;100392.86;99856;1281;107270;-78
2022/11/02 09:13:39;;;;;;;35.10;24.30;;;;;;;14.98;78.54;100391.94;99988;1288;97744;-80
2022/11/02 09:16:08;;;;;;;37.40;26.00;;;;;;;14.89;78.43;100391.16;99821;1290;140651;-77
2022/11/02 09:18:35;;;;;;;39.70;25.20;;;;;;;14.76;78.55;100392.48;99787;1289;97866;-78
2022/11/02 09:21:04;;;;;;;42.80;26.50;;;;;;;14.65;79.09;100391.77;99784;1288;138823;-79
2022/11/02 09:23:32;;;;;;;40.30;27.30;;;;;;;14.57;79.31;100390.05;99708;1284;108603;-82
2022/11/02 09:26:00;;;;;;;39.30;26.90;;;;;;;14.54;79.89;100384.76;99673;1287;97836;-80
2022/11/02 09:28:27;;;;;;;37.30;27.10;;;;;;;14.54;80.11;100385.65;99815;1291;108506;-79
2022/11/02 09:30:54;;;;;;;41.60;26.70;;;;;;;14.51;80.27;100392.38;99779;1284;97932;-80
2022/11/02 09:33:24;;;;;;;41.20;26.40;;;;;;;14.53;80.49;100393.74;99745;1298;137879;-78
2022/11/02 09:35:51;;;;;;;46.30;25.80;;;;;;;14.53;80.36;100394.27;99821;1293;107438;-80
2022/11/02 09:38:18;;;;;;;38.40;24.30;;;;;;;14.49;80.14;100394.58;99698;1296;139141;-78
2022/11/02 09:40:51;;;;;;;37.60;24.60;;;;;;;14.44;80.24;100395.53;99765;1291;108892;-77
2022/11/02 09:43:28;;;;;;;37.40;24.00;;;;;;;14.43;80.47;100398.55;99682;1292;97892;-77
2022/11/02 09:46:02;;;;;;;36.20;23.40;;;;;;;14.41;80.03;100396.55;99669;1290;138521;-77
2022/11/02 09:48:35;;;;;;;35.20;22.80;;;;;;;14.36;80.09;100396.56;99705;1284;107918;-76
2022/11/02 09:51:07;;;;;;;38.90;23.10;;;;;;;14.29;80.20;100393.73;99559;1292;139842;-78
2022/11/02 09:53:48;;;;;;;33.60;21.20;;;;;;;14.24;80.17;100396.45;101398;1280;106782;-80
2022/11/02 09:56:19;;;;;;;37.20;22.50;;;;;;;14.16;80.31;100401.11;101343;1292;139058;-80
2022/11/02 09:58:53;;;;;;;39.10;21.60;;;;;;;14.10;80.33;100397.94;101394;1298;111730;-80
2022/11/02 10:01:33;;;;;;;33.40;22.70;;;;;;;14.04;80.58;100397.70;100194;1291;107749;-81
2022/11/02 10:04:20;;;;;;;36.60;22.10;;;;;;;13.99;80.86;100395.95;99554;1293;139044;-80
2022/11/02 10:06:55;;;;;;;34.50;22.80;;;;;;;13.95;81.20;100396.14;99657;1295;107940;-80
2022/11/02 10:09:28;;;;;;;38.70;22.60;;;;;;;13.92;81.51;100401.85;99782;1296;138630;-82
2022/11/02 10:12:02;;;;;;;37.10;22.20;;;;;;;13.91;81.69;100402.76;99743;1290;111067;-79
2022/11/02 10:14:35;;;;;;;34.40;20.90;;;;;;;13.92;81.90;100400.64;99648;1290;139259;-79
2022/11/02 10:17:12;;;;;;;33.80;21.10;;;;;;;13.89;81.96;100400.57;99794;1292;97608;-80
2022/11/02 10:19:43;;;;;;;36.50;22.00;;;;;;;13.89;82.09;100400.92;100282;1294;107495;-81
2022/11/02 10:22:14;;;;;;;36.60;21.50;;;;;;;13.91;82.22;100402.95;99589;1290;140347;-78
2022/11/02 10:24:44;;;;;;;39.80;22.80;;;;;;;13.92;82.36;100402.38;99729;1290;110106;-79
2022/11/02 10:27:20;;;;;;;38.70;22.60;;;;;;;13.98;82.54;100405.79;99578;1298;139843;-80
2022/11/02 10:29:57;;;;;;;38.10;22.50;;;;;;;14.03;82.47;100402.45;99718;1291;97946;-79
2022/11/02 10:32:25;;;;;;;36.40;22.80;;;;;;;14.08;82.68;100394.88;99730;1285;139217;-79
2022/11/02 10:34:52;;;;;;;38.40;22.70;;;;;;;14.13;82.60;100397.45;99836;1291;97816;-80
2022/11/02 10:37:48;;;;;;;37.70;22.10;;;;;;;14.18;82.56;100398.43;99724;1288;111313;-80
2022/11/02 10:40:31;;;;;;;35.20;23.30;;;;;;;14.21;82.42;100397.41;99679;1294;137874;-79
2022/11/02 10:43:13;;;;;;;34.20;22.50;;;;;;;14.22;82.41;100398.11;99866;1290;96443;-83
2022/11/02 10:46:02;;;;;;;36.50;22.20;;;;;;;14.24;82.45;100400.09;99703;1278;140574;-80
2022/11/02 10:48:38;;;;;;;38.60;22.00;;;;;;;14.25;82.23;100400.94;99760;1290;97753;-80
2022/11/02 10:51:11;;;;;;;39.50;21.70;;;;;;;14.24;82.10;100400.29;101236;1291;139509;-80
2022/11/02 10:53:41;;;;;;;34.80;20.90;;;;;;;14.23;82.37;100404.52;101343;1301;108081;-80
2022/11/02 10:56:15;;;;;;;35.60;20.90;;;;;;;14.27;82.49;100404.31;101206;1292;160714;-79
2022/11/02 10:58:49;;;;;;;28.30;19.80;;;;;;;14.34;82.61;100402.25;101294;1293;109892;-81
2022/11/02 11:01:17;;;;;;;36.40;20.60;;;;;;;14.42;82.45;100405.40;101263;1281;95965;-77
2022/11/02 11:03:59;;;;;;;34.70;20.20;;;;;;;14.51;82.32;100407.98;101223;1287;138304;-76
2022/11/02 11:06:27;;;;;;;30.70;19.30;;;;;;;14.63;81.96;100403.23;101370;1291;107061;-76
2022/11/02 11:09:01;;;;;;;33.40;19.70;;;;;;;14.71;81.68;100406.39;101214;1292;140113;-76
2022/11/02 11:11:30;;;;;;;29.50;18.20;;;;;;;14.74;81.04;100405.55;101198;1298;107741;-77
2022/11/02 11:14:02;;;;;;;31.30;18.80;;;;;;;14.73;80.72;100403.65;101217;1296;96450;-75
2022/11/02 11:16:51;;;;;;;28.50;18.70;;;;;;;14.76;80.64;100404.73;101373;1288;111863;-76
2022/11/02 11:19:36;;;;;;;26.40;18.10;;;;;;;14.79;80.34;100398.82;101209;1298;107523;-77
2022/11/02 11:22:28;;;;;;;25.70;17.40;;;;;;;14.86;80.48;100401.10;100807;1292;139911;-77
2022/11/02 11:25:15;;;;;;;25.10;16.40;;;;;;;14.94;79.42;100406.17;99846;1290;107729;-75